TimeCDT,TemperatureF,Dew PointF,Humidity,Sea Level PressureIn,VisibilityMPH,Wind Direction,Wind SpeedMPH,Gust SpeedMPH,PrecipitationIn,Events,Conditions,WindDirDegrees,DateUTC
12:15 AM,70.7,66.9,88,29.86,10.0,Calm,Calm,-,N/A,,Clear,0,2013-07-20 05:15:00
12:35 AM,71.1,66.7,86,29.86,10.0,North,3.5,-,N/A,,Clear,350,2013-07-20 05:35:00
12:55 AM,70.9,66.2,85,29.86,10.0,Calm,Calm,-,N/A,,Clear,0,2013-07-20 05:55:00
1:15 AM,73.0,65.1,76,29.86,10.0,Calm,Calm,-,N/A,,Clear,0,2013-07-20 06:15:00
1:35 AM,72.7,64.6,76,29.86,10.0,North,3.5,-,N/A,,Clear,10,2013-07-20 06:35:00
1:55 AM,69.8,65.3,86,29.87,10.0,Calm,Calm,-,N/A,,Clear,0,2013-07-20 06:55:00
2:15 AM,69.8,65.8,87,29.87,10.0,NNW,3.5,-,N/A,,Clear,340,2013-07-20 07:15:00
2:35 AM,69.1,65.5,88,29.87,10.0,Calm,Calm,-,N/A,,Clear,0,2013-07-20 07:35:00
2:55 AM,67.5,63.5,87,29.87,10.0,NNE,3.5,-,N/A,,Clear,20,2013-07-20 07:55:00
3:15 AM,66.0,63.1,90,29.87,10.0,Calm,Calm,-,N/A,,Clear,0,2013-07-20 08:15:00
3:35 AM,66.0,62.8,89,29.86,10.0,Calm,Calm,-,N/A,,Clear,0,2013-07-20 08:35:00
3:55 AM,65.8,62.2,88,29.86,10.0,Calm,Calm,-,N/A,,Clear,0,2013-07-20 08:55:00
4:15 AM,65.7,63.0,91,29.87,10.0,North,3.5,-,N/A,,Clear,350,2013-07-20 09:15:00
4:35 AM,64.6,61.9,91,29.87,10.0,Calm,Calm,-,N/A,,Clear,0,2013-07-20 09:35:00
4:55 AM,64.9,62.8,93,29.88,10.0,North,3.5,-,N/A,,Clear,360,2013-07-20 09:55:00
5:15 AM,63.3,61.5,94,29.88,1.2,North,4.6,-,N/A,,Mist,350,2013-07-20 10:15:00
5:35 AM,64.0,62.6,95,29.88,10.0,North,5.8,-,N/A,,Clear,360,2013-07-20 10:35:00
5:55 AM,63.1,61.0,93,29.89,10.0,North,4.6,-,N/A,,Clear,10,2013-07-20 10:55:00
6:15 AM,63.3,61.3,93,29.90,10.0,Calm,Calm,-,N/A,,Clear,0,2013-07-20 11:15:00
6:35 AM,64.0,61.7,92,29.89,10.0,Calm,Calm,-,N/A,,Clear,0,2013-07-20 11:35:00
6:55 AM,66.7,63.7,90,29.90,7.0,Calm,Calm,-,N/A,,Clear,0,2013-07-20 11:55:00
7:15 AM,69.6,64.2,83,29.90,5.0,Calm,Calm,-,N/A,,Haze,0,2013-07-20 12:15:00
7:35 AM,70.7,64.6,81,29.90,10.0,Calm,Calm,-,N/A,,Clear,0,2013-07-20 12:35:00
7:55 AM,72.7,64.8,76,29.91,10.0,Calm,Calm,-,N/A,,Clear,0,2013-07-20 12:55:00
8:15 AM,74.8,63.5,68,29.91,10.0,Calm,Calm,-,N/A,,Clear,0,2013-07-20 13:15:00
8:35 AM,76.5,62.6,62,29.91,10.0,NNW,4.6,-,N/A,,Clear,340,2013-07-20 13:35:00
8:55 AM,77.5,61.9,58,29.92,10.0,NNW,4.6,-,N/A,,Clear,330,2013-07-20 13:55:00
9:15 AM,79.0,61.9,56,29.92,10.0,NNW,5.8,-,N/A,,Clear,340,2013-07-20 14:15:00
9:35 AM,80.2,62.1,54,29.93,10.0,North,4.6,-,N/A,,Clear,350,2013-07-20 14:35:00
9:55 AM,81.3,60.6,49,29.93,10.0,NNE,6.9,-,N/A,,Clear,20,2013-07-20 14:55:00
10:15 AM,82.0,60.3,47,29.94,10.0,NNW,5.8,-,N/A,,Clear,330,2013-07-20 15:15:00
10:35 AM,83.1,59.7,45,29.94,10.0,NNE,3.5,-,N/A,,Clear,20,2013-07-20 15:35:00
10:55 AM,84.0,59.9,44,29.93,10.0,NE,5.8,-,N/A,,Clear,40,2013-07-20 15:55:00
11:15 AM,83.8,58.8,43,29.94,10.0,NNE,5.8,-,N/A,,Clear,20,2013-07-20 16:15:00
11:35 AM,85.6,58.6,40,29.94,10.0,North,3.5,-,N/A,,Clear,350,2013-07-20 16:35:00
11:55 AM,85.3,56.3,37,29.94,10.0,NW,5.8,-,N/A,,Clear,320,2013-07-20 16:55:00
12:15 PM,84.9,57.4,39,29.94,10.0,Calm,Calm,-,N/A,,Clear,0,2013-07-20 17:15:00
12:35 PM,86.9,55.9,35,29.94,10.0,North,5.8,-,N/A,,Clear,360,2013-07-20 17:35:00
12:55 PM,84.9,58.1,40,29.94,10.0,West,5.8,-,N/A,,Scattered Clouds,270,2013-07-20 17:55:00
1:15 PM,86.0,58.5,39,29.94,10.0,West,6.9,-,N/A,,Scattered Clouds,280,2013-07-20 18:15:00
1:35 PM,86.9,58.3,38,29.93,10.0,WNW,4.6,-,N/A,,Clear,290,2013-07-20 18:35:00
1:55 PM,86.9,58.1,38,29.92,10.0,West,6.9,-,N/A,,Clear,280,2013-07-20 18:55:00
2:15 PM,87.6,58.8,38,29.91,10.0,West,8.1,-,N/A,,Clear,270,2013-07-20 19:15:00
2:35 PM,87.6,59.0,38,29.91,10.0,West,5.8,-,N/A,,Clear,270,2013-07-20 19:35:00
2:55 PM,87.3,59.0,38,29.90,10.0,WNW,5.8,-,N/A,,Clear,300,2013-07-20 19:55:00
3:15 PM,87.8,59.0,38,29.90,10.0,WNW,5.8,-,N/A,,Clear,290,2013-07-20 20:15:00
3:35 PM,87.8,59.4,38,29.90,10.0,NNW,5.8,-,N/A,,Clear,330,2013-07-20 20:35:00
3:55 PM,88.0,60.3,39,29.89,10.0,WSW,6.9,-,N/A,,Clear,250,2013-07-20 20:55:00
4:15 PM,87.8,59.7,39,29.88,10.0,NNW,4.6,-,N/A,,Clear,330,2013-07-20 21:15:00
4:35 PM,87.8,59.5,38,29.88,10.0,WNW,5.8,-,N/A,,Clear,290,2013-07-20 21:35:00
4:55 PM,87.8,59.2,38,29.88,10.0,NW,5.8,-,N/A,,Clear,320,2013-07-20 21:55:00
5:15 PM,88.2,60.1,39,29.88,10.0,West,5.8,-,N/A,,Clear,270,2013-07-20 22:15:00
5:35 PM,87.8,59.7,39,29.87,10.0,NNW,8.1,-,N/A,,Clear,330,2013-07-20 22:35:00
5:55 PM,88.0,61.0,40,29.88,10.0,NNW,9.2,-,N/A,,Scattered Clouds,330,2013-07-20 22:55:00
6:15 PM,86.0,61.3,43,29.88,10.0,NNW,6.9,-,N/A,,Mostly Cloudy,340,2013-07-20 23:15:00
6:35 PM,83.3,62.2,49,29.89,10.0,NW,10.4,-,N/A,,Overcast,310,2013-07-20 23:35:00
6:55 PM,82.0,61.5,50,29.90,10.0,NW,11.5,-,N/A,,Mostly Cloudy,310,2013-07-20 23:55:00
7:15 PM,79.2,61.0,54,29.90,10.0,NW,10.4,-,N/A,,Mostly Cloudy,320,2013-07-21 00:15:00
7:35 PM,78.3,61.2,56,29.89,10.0,NNW,4.6,-,N/A,,Overcast,330,2013-07-21 00:35:00
7:55 PM,78.3,61.9,57,29.90,10.0,NW,4.6,-,N/A,,Overcast,320,2013-07-21 00:55:00
8:15 PM,77.5,61.2,57,29.91,10.0,NNW,5.8,-,N/A,,Overcast,330,2013-07-21 01:15:00
8:35 PM,76.6,61.3,59,29.92,10.0,NNW,4.6,-,N/A,,Overcast,330,2013-07-21 01:35:00
8:55 PM,75.6,62.1,63,29.92,10.0,NNE,4.6,-,N/A,,Overcast,20,2013-07-21 01:55:00
9:15 PM,74.5,62.1,65,29.93,10.0,Calm,Calm,-,N/A,,Overcast,0,2013-07-21 02:15:00
9:35 PM,74.8,62.1,64,29.93,10.0,Calm,Calm,-,N/A,,Mostly Cloudy,0,2013-07-21 02:35:00
9:55 PM,72.9,61.9,68,29.93,10.0,Calm,Calm,-,N/A,,Scattered Clouds,0,2013-07-21 02:55:00
10:15 PM,74.5,61.2,63,29.93,10.0,Calm,Calm,-,N/A,,Scattered Clouds,0,2013-07-21 03:15:00
10:35 PM,70.7,62.6,75,29.93,10.0,NNE,4.6,-,N/A,,Scattered Clouds,30,2013-07-21 03:35:00
10:55 PM,70.5,63.9,79,29.93,10.0,Calm,Calm,-,N/A,,Scattered Clouds,0,2013-07-21 03:55:00
11:15 PM,70.3,63.7,79,29.93,10.0,Calm,Calm,-,N/A,,Clear,0,2013-07-21 04:15:00
11:35 PM,69.8,64.0,82,29.94,10.0,NNE,3.5,-,N/A,,Clear,20,2013-07-21 04:35:00
11:55 PM,69.1,63.9,83,29.94,10.0,North,3.5,-,N/A,,Clear,10,2013-07-21 04:55:00